Hafnia Torres — 9V3283 — position and weather

sailwx.info

Track history (hours):
 
Tides and Currents Weather Stations Pressure Air Temp Water Temp Dewpoint Dewpoint Depression Visibility Wind Speed Wind Dir Waves Ship Positions

Hafnia Torres

Last reported at 2018-Jun-20 04:44 UTC. Time now 2018-Jun-21 14:24 UTC.
Position N 54°48' W 000°52'.

Length 184 m; draft 10.5 m.

Type: Tanker. MMSI: 566598000.

Date/timePositionNaut miles runAvg speedWind from/ knotsBaromVisibWave heightAir tempDewpointWater temp
2018-Jun-20 04:44N 54°48' W 000°52'312.5
2018-Jun-20 04:30N 54°46' W 000°56'4 0.1
2018-Jun-18 09:41N 54°44' W 000°51'43011.9
2018-Jun-16 21:29N 57°45' E 010°52'612.4
2018-Jun-16 20:59N 57°41' E 011°01'613.2
2018-Jun-16 20:30N 57°36' E 011°09'712.9
2018-Jun-16 20:00N 57°32' E 011°18'612.1
2018-Jun-16 19:30N 57°28' E 011°26'612.1
2018-Jun-16 18:59N 57°22' E 011°30'612.3
2018-Jun-16 18:30N 57°16' E 011°34'11910.9
2018-Jun-16 07:32N 55°18' E 011°03'112.1
2018-Jun-16 07:27N 55°17' E 011°04'511.1
2018-Jun-16 06:59N 55°12' E 011°06'611.5
2018-Jun-16 06:29N 55°08' E 010°59'611.7
2018-Jun-16 06:00N 55°02' E 010°60'510.8
2018-Jun-16 05:30N 54°57' E 010°56'510.7
2018-Jun-16 05:00N 54°53' E 010°51'510.3
2018-Jun-16 04:30N 54°48' E 010°50'510.4
2018-Jun-16 04:00N 54°42' E 010°48'510.8
2018-Jun-16 03:30N 54°38' E 010°54'611.1
2018-Jun-16 03:00N 54°36' E 011°03'611.2
2018-Jun-16 02:30N 54°35' E 011°12'611.4
2018-Jun-16 02:00N 54°33' E 011°21'611.8
2018-Jun-16 01:30N 54°30' E 011°31'611.9
2018-Jun-16 01:00N 54°28' E 011°40'611.6
2018-Jun-16 00:30N 54°26' E 011°50'612.6
2018-Jun-16 00:00N 54°27' E 012°00'612.1
2018-Jun-15 23:30N 54°27' E 012°11'612.1
2018-Jun-15 23:00N 54°33' E 012°14'510.6
2018-Jun-15 22:30N 54°37' E 012°19'610.7
2018-Jun-15 21:58N 54°41' E 012°27'712.5
2018-Jun-15 21:26N 54°44' E 012°37'913.1
2018-Jun-15 20:45N 54°49' E 012°50'1813.2
2018-Jun-15 19:24N 54°55' E 013°19'513.2
2018-Jun-15 18:59N 54°57' E 013°28'1112.9
2018-Jun-15 18:06N 55°00' E 013°47'812.9
2018-Jun-15 17:30N 55°03' E 013°60'612.2
2018-Jun-15 17:00N 55°07' E 014°08'912.7
2018-Jun-15 16:16N 55°14' E 014°18'312.6
2018-Jun-15 16:00N 55°17' E 014°22'712.5
2018-Jun-15 15:27N 55°22' E 014°30'512.4
2018-Jun-15 15:00N 55°27' E 014°36'612.5
2018-Jun-15 14:31N 55°30' E 014°45'1112.4
2018-Jun-15 13:38N 55°35' E 015°02'212.0
2018-Jun-15 13:28N 55°36' E 015°05'612.2
2018-Jun-15 12:59N 55°39' E 015°14'26712.4
2018-Jun-14 15:26N 58°47' E 021°05'612.4
2018-Jun-14 14:57N 58°52' E 021°12'612.6
2018-Jun-14 14:29N 58°56' E 021°18'612.6
2018-Jun-14 14:00N 59°01' E 021°25'612.5
2018-Jun-14 13:30N 59°06' E 021°32'612.2
2018-Jun-14 13:00N 59°10' E 021°41'612.6
2018-Jun-14 12:30N 59°14' E 021°51'612.7
2018-Jun-14 12:00N 59°18' E 022°01'612.7
2018-Jun-14 11:30N 59°22' E 022°11'612.5
2018-Jun-14 11:00N 59°25' E 022°21'612.6
2018-Jun-14 10:30N 59°29' E 022°31'612.5
2018-Jun-14 10:00N 59°31' E 022°42'612.5
2018-Jun-14 09:30N 59°33' E 022°54'612.5
2018-Jun-14 09:00N 59°34' E 023°06'612.5
2018-Jun-14 08:30N 59°36' E 023°18'612.4
2018-Jun-14 08:00N 59°38' E 023°30'612.5
2018-Jun-14 07:30N 59°40' E 023°42'612.7
2018-Jun-14 07:00N 59°41' E 023°54'612.5
2018-Jun-14 06:30N 59°43' E 024°06'612.6
2018-Jun-14 06:00N 59°45' E 024°18'611.9
2018-Jun-14 05:30N 59°46' E 024°29'612.5
2018-Jun-14 05:00N 59°42' E 024°39'612.3
2018-Jun-14 04:30N 59°37' E 024°47'2 3.9
2018-Jun-14 04:00N 59°36' E 024°49'0 0.1
2018-Jun-14 03:28N 59°36' E 024°48'0 0.0
2018-Jun-14 02:58N 59°36' E 024°48'0 0.0
2018-Jun-14 02:30N 59°36' E 024°48'0 0.0
2018-Jun-14 02:00N 59°36' E 024°48'0 0.0
2018-Jun-14 01:29N 59°36' E 024°48'0 0.0
2018-Jun-14 01:00N 59°36' E 024°48'0 0.0
2018-Jun-14 00:28N 59°36' E 024°48'0 0.0
2018-Jun-13 23:58N 59°36' E 024°48'0 0.0
2018-Jun-13 23:28N 59°36' E 024°48'0 0.0
2018-Jun-13 22:58N 59°36' E 024°48'0 0.0
2018-Jun-13 22:28N 59°36' E 024°48'0 0.0
2018-Jun-13 21:58N 59°36' E 024°48'0 0.0
2018-Jun-13 21:28N 59°36' E 024°49'0 0.0
2018-Jun-13 20:58N 59°36' E 024°49'0 0.0
2018-Jun-13 20:29N 59°36' E 024°49'0 0.0
2018-Jun-13 19:58N 59°36' E 024°49'0 0.0
2018-Jun-13 19:28N 59°36' E 024°49'0 0.0
2018-Jun-13 18:58N 59°36' E 024°49'0 0.0
2018-Jun-13 18:28N 59°36' E 024°49'0 0.0
2018-Jun-13 17:58N 59°36' E 024°49'0 0.0
2018-Jun-13 17:29N 59°36' E 024°48'0 0.0
2018-Jun-13 16:58N 59°36' E 024°48'0 0.0
2018-Jun-13 16:30N 59°36' E 024°48'0 0.0
2018-Jun-13 15:58N 59°36' E 024°49'0 0.1
2018-Jun-13 15:30N 59°35' E 024°49'1 3.0
2018-Jun-13 15:00N 59°37' E 024°48'3 5.9
2018-Jun-13 14:30N 59°40' E 024°49'510.5
2018-Jun-13 14:00N 59°45' E 024°53'612.3
2018-Jun-13 13:30N 59°49' E 025°01'711.6
2018-Jun-13 12:56N 59°52' E 025°13'512.4
2018-Jun-13 12:30N 59°53' E 025°23'612.3
2018-Jun-13 12:00N 59°54' E 025°36'612.5
2018-Jun-13 11:30N 59°55' E 025°48'612.5
2018-Jun-13 11:00N 59°57' E 025°60'812.3
2018-Jun-13 10:20N 59°59' E 026°16'412.5
2018-Jun-13 10:00N 60°00' E 026°24'612.4
2018-Jun-13 09:30N 60°01' E 026°36'612.8
2018-Jun-13 09:00N 60°00' E 026°49'612.4
2018-Jun-13 08:30N 59°59' E 027°01'611.9
2018-Jun-13 07:59N 60°02' E 027°12'713.3
2018-Jun-13 07:28N 60°06' E 027°24'612.1
2018-Jun-13 07:00N 60°08' E 027°33'612.0
2018-Jun-13 06:29N 60°12' E 027°44'612.1
2018-Jun-13 06:00N 60°11' E 027°56'612.6
2018-Jun-13 05:30N 60°09' E 028°08'612.0
2018-Jun-13 05:00N 60°07' E 028°19'612.0
2018-Jun-13 04:30N 60°09' E 028°31'612.3
2018-Jun-13 04:00N 60°10' E 028°43'5 9.7
2018-Jun-13 03:30N 60°15' E 028°48'5 9.2
2018-Jun-13 03:00N 60°19' E 028°44'0 0.3
2018-Jun-13 02:02N 60°19' E 028°44'0 0.0
2018-Jun-13 01:41N 60°19' E 028°44'0 0.0
2018-Jun-13 01:26N 60°19' E 028°44'0 0.0
2018-Jun-13 00:56N 60°19' E 028°44'0 0.0
2018-Jun-13 00:22N 60°19' E 028°44'0 0.0
2018-Jun-12 23:55N 60°19' E 028°44'0 0.0
2018-Jun-12 23:27N 60°19' E 028°44'0 0.0
2018-Jun-12 22:56N 60°19' E 028°44'0 0.0
2018-Jun-12 21:54N 60°19' E 028°44'0 0.0
2018-Jun-12 21:24N 60°19' E 028°44'0 0.0
2018-Jun-12 20:30N 60°19' E 028°44'0 0.0
2018-Jun-12 19:59N 60°19' E 028°44'0 0.0
2018-Jun-12 19:26N 60°19' E 028°44'0 0.0
2018-Jun-12 18:58N 60°19' E 028°44'0 0.0
2018-Jun-12 18:27N 60°19' E 028°44'0 0.0
2018-Jun-12 16:33N 60°19' E 028°44'0 0.0
2018-Jun-12 16:11N 60°19' E 028°44'0 0.0
2018-Jun-12 15:59N 60°19' E 028°44'0 0.0
2018-Jun-12 15:27N 60°19' E 028°44'0 0.0
2018-Jun-12 14:57N 60°19' E 028°44'0 0.0
2018-Jun-12 13:00N 60°19' E 028°44'0 0.0
2018-Jun-12 12:26N 60°19' E 028°44'0 0.0
2018-Jun-12 11:32N 60°19' E 028°44'0 0.0
2018-Jun-12 11:21N 60°19' E 028°44'0 0.0
2018-Jun-12 10:56N 60°19' E 028°44'0 0.0
2018-Jun-12 10:30N 60°19' E 028°44'0 0.0
2018-Jun-12 09:55N 60°19' E 028°44'0 0.0
2018-Jun-12 09:18N 60°19' E 028°44'0 0.0
2018-Jun-12 08:48N 60°19' E 028°44'0 0.0
2018-Jun-12 08:29N 60°19' E 028°44'0 0.0
2018-Jun-12 07:56N 60°19' E 028°44'0 0.0
2018-Jun-12 07:29N 60°19' E 028°44'0 0.0
2018-Jun-12 06:42N 60°19' E 028°44'0 0.0
2018-Jun-12 06:28N 60°19' E 028°44'0 0.0
2018-Jun-12 05:59N 60°19' E 028°44'0 0.0
2018-Jun-12 05:28N 60°19' E 028°44'0 0.0
2018-Jun-12 05:00N 60°19' E 028°44'0 0.0
2018-Jun-12 04:27N 60°19' E 028°44'0 0.0
2018-Jun-12 03:59N 60°19' E 028°44'0 0.0
2018-Jun-12 03:29N 60°19' E 028°44'0 0.0
2018-Jun-12 02:53N 60°19' E 028°44'0 0.0
2018-Jun-12 02:23N 60°19' E 028°44'0 0.0
2018-Jun-12 01:39N 60°19' E 028°44'0 0.0
2018-Jun-12 01:27N 60°19' E 028°44'0 0.0
2018-Jun-12 00:51N 60°19' E 028°44'0 0.0
2018-Jun-12 00:19N 60°19' E 028°44'0 0.0
2018-Jun-11 23:54N 60°19' E 028°44'0 0.1
2018-Jun-11 23:29N 60°19' E 028°44'1 2.1
2018-Jun-11 23:01N 60°18' E 028°44'4 7.6
2018-Jun-11 22:31N 60°15' E 028°48'712.2
2018-Jun-11 21:58N 60°09' E 028°41'613.3
2018-Jun-11 21:31N 60°04' E 028°35'510.1
2018-Jun-11 21:00N 60°00' E 028°28'0 0.3
2018-Jun-11 20:29N 60°00' E 028°28'0 0.0
2018-Jun-11 20:00N 60°00' E 028°28'0 0.0
2018-Jun-11 19:30N 60°00' E 028°28'0 0.0
2018-Jun-11 18:50N 60°00' E 028°28'0 0.0
2018-Jun-11 18:30N 60°00' E 028°28'0 0.0
2018-Jun-11 17:53N 60°00' E 028°28'0 0.0
2018-Jun-11 17:23N 60°00' E 028°28'0 0.0
2018-Jun-11 16:53N 60°00' E 028°28'0 0.0
2018-Jun-11 16:23N 60°00' E 028°28'0 0.1
2018-Jun-11 15:53N 60°00' E 028°28'0 0.0
2018-Jun-11 15:23N 60°00' E 028°28'0 0.0
2018-Jun-11 14:56N 60°00' E 028°28'0 0.1
2018-Jun-11 14:26N 60°00' E 028°28'0 0.1
2018-Jun-11 13:59N 60°00' E 028°28'0 0.6
2018-Jun-11 13:31N 60°01' E 028°28'2 4.5
2018-Jun-11 13:01N 60°03' E 028°26'5 9.1
2018-Jun-11 12:30N 60°06' E 028°19'612.0
2018-Jun-11 12:01N 60°08' E 028°08'612.4
2018-Jun-11 11:30N 60°10' E 027°56'611.5
2018-Jun-11 11:00N 60°10' E 027°44'612.6
2018-Jun-11 10:30N 60°07' E 027°33'612.3
2018-Jun-11 10:01N 60°04' E 027°23'712.5
2018-Jun-11 09:28N 60°00' E 027°12'611.7
2018-Jun-11 09:00N 59°58' E 027°02'612.4
2018-Jun-11 08:30N 59°59' E 026°50'612.1
2018-Jun-11 08:00N 59°59' E 026°38'612.5
2018-Jun-11 07:31N 59°57' E 026°26'612.2
2018-Jun-11 07:00N 59°56' E 026°14'612.4
2018-Jun-11 06:31N 59°54' E 026°02'612.4
2018-Jun-11 06:01N 59°52' E 025°50'612.5
2018-Jun-11 05:31N 59°51' E 025°38'612.7
2018-Jun-11 05:01N 59°50' E 025°26'612.6
2018-Jun-11 04:31N 59°48' E 025°13'612.5
2018-Jun-11 04:01N 59°47' E 025°01'612.6
2018-Jun-11 03:31N 59°46' E 024°49'612.8
2018-Jun-11 03:01N 59°45' E 024°37'612.7
2018-Jun-11 02:31N 59°43' E 024°24'612.8
2018-Jun-11 02:01N 59°41' E 024°12'612.7
2018-Jun-11 01:31N 59°39' E 024°00'612.5
2018-Jun-11 01:01N 59°37' E 023°49'612.5
2018-Jun-11 00:31N 59°35' E 023°37'612.8
2018-Jun-11 00:01N 59°33' E 023°25'612.6
2018-Jun-10 23:30N 59°31' E 023°13'612.5
2018-Jun-10 23:01N 59°29' E 023°01'612.6
2018-Jun-10 22:31N 59°27' E 022°50'612.6
2018-Jun-10 22:01N 59°25' E 022°38'612.6
2018-Jun-10 21:30N 59°21' E 022°28'612.6
2018-Jun-10 21:00N 59°17' E 022°18'612.6
2018-Jun-10 20:30N 59°14' E 022°08'612.7
2018-Jun-10 20:00N 59°10' E 021°59'612.6
2018-Jun-10 19:31N 59°06' E 021°49'612.4
2018-Jun-10 19:01N 59°01' E 021°41'612.2
2018-Jun-10 18:29N 58°56' E 021°33'612.2
2018-Jun-10 18:00N 58°52' E 021°26'612.4
2018-Jun-10 17:30N 58°47' E 021°19'612.5
2018-Jun-10 17:00N 58°42' E 021°12'612.4
2018-Jun-10 16:29N 58°37' E 021°04'612.3
2018-Jun-10 16:01N 58°32' E 020°57'612.3
2018-Jun-10 15:31N 58°27' E 020°50'612.7
2018-Jun-10 15:00N 58°22' E 020°43'  
Track history (hours):
 
Tides and Currents Weather Stations Pressure Air Temp Water Temp Dewpoint Dewpoint Depression Visibility Wind Speed Wind Dir Waves Ship Positions

Hafnia Torres

Last reported at 2018-Jun-20 04:44 UTC. Time now 2018-Jun-21 14:24 UTC.
Position N 54°48' W 000°52'.

Length 184 m; draft 10.5 m.

Type: Tanker. MMSI: 566598000.

Date/timePositionNaut miles runAvg speedWind from/ knotsBaromVisibWave heightAir tempDewpointWater temp
2018-Jun-20 04:44N 54°48' W 000°52'312.5
2018-Jun-20 04:30N 54°46' W 000°56'4 0.1
2018-Jun-18 09:41N 54°44' W 000°51'43011.9
2018-Jun-16 21:29N 57°45' E 010°52'612.4
2018-Jun-16 20:59N 57°41' E 011°01'613.2
2018-Jun-16 20:30N 57°36' E 011°09'712.9
2018-Jun-16 20:00N 57°32' E 011°18'612.1
2018-Jun-16 19:30N 57°28' E 011°26'612.1
2018-Jun-16 18:59N 57°22' E 011°30'612.3
2018-Jun-16 18:30N 57°16' E 011°34'11910.9
2018-Jun-16 07:32N 55°18' E 011°03'112.1
2018-Jun-16 07:27N 55°17' E 011°04'511.1
2018-Jun-16 06:59N 55°12' E 011°06'611.5
2018-Jun-16 06:29N 55°08' E 010°59'611.7
2018-Jun-16 06:00N 55°02' E 010°60'510.8
2018-Jun-16 05:30N 54°57' E 010°56'510.7
2018-Jun-16 05:00N 54°53' E 010°51'510.3
2018-Jun-16 04:30N 54°48' E 010°50'510.4
2018-Jun-16 04:00N 54°42' E 010°48'510.8
2018-Jun-16 03:30N 54°38' E 010°54'611.1
2018-Jun-16 03:00N 54°36' E 011°03'611.2
2018-Jun-16 02:30N 54°35' E 011°12'611.4
2018-Jun-16 02:00N 54°33' E 011°21'611.8
2018-Jun-16 01:30N 54°30' E 011°31'611.9
2018-Jun-16 01:00N 54°28' E 011°40'611.6
2018-Jun-16 00:30N 54°26' E 011°50'612.6
2018-Jun-16 00:00N 54°27' E 012°00'612.1
2018-Jun-15 23:30N 54°27' E 012°11'612.1
2018-Jun-15 23:00N 54°33' E 012°14'510.6
2018-Jun-15 22:30N 54°37' E 012°19'610.7
2018-Jun-15 21:58N 54°41' E 012°27'712.5
2018-Jun-15 21:26N 54°44' E 012°37'913.1
2018-Jun-15 20:45N 54°49' E 012°50'1813.2
2018-Jun-15 19:24N 54°55' E 013°19'513.2
2018-Jun-15 18:59N 54°57' E 013°28'1112.9
2018-Jun-15 18:06N 55°00' E 013°47'812.9
2018-Jun-15 17:30N 55°03' E 013°60'612.2
2018-Jun-15 17:00N 55°07' E 014°08'912.7
2018-Jun-15 16:16N 55°14' E 014°18'312.6
2018-Jun-15 16:00N 55°17' E 014°22'712.5
2018-Jun-15 15:27N 55°22' E 014°30'512.4
2018-Jun-15 15:00N 55°27' E 014°36'612.5
2018-Jun-15 14:31N 55°30' E 014°45'1112.4
2018-Jun-15 13:38N 55°35' E 015°02'212.0
2018-Jun-15 13:28N 55°36' E 015°05'612.2
2018-Jun-15 12:59N 55°39' E 015°14'26712.4
2018-Jun-14 15:26N 58°47' E 021°05'612.4
2018-Jun-14 14:57N 58°52' E 021°12'612.6
2018-Jun-14 14:29N 58°56' E 021°18'612.6
2018-Jun-14 14:00N 59°01' E 021°25'612.5
2018-Jun-14 13:30N 59°06' E 021°32'612.2
2018-Jun-14 13:00N 59°10' E 021°41'612.6
2018-Jun-14 12:30N 59°14' E 021°51'612.7
2018-Jun-14 12:00N 59°18' E 022°01'612.7
2018-Jun-14 11:30N 59°22' E 022°11'612.5
2018-Jun-14 11:00N 59°25' E 022°21'612.6
2018-Jun-14 10:30N 59°29' E 022°31'612.5
2018-Jun-14 10:00N 59°31' E 022°42'612.5
2018-Jun-14 09:30N 59°33' E 022°54'612.5
2018-Jun-14 09:00N 59°34' E 023°06'612.5
2018-Jun-14 08:30N 59°36' E 023°18'612.4
2018-Jun-14 08:00N 59°38' E 023°30'612.5
2018-Jun-14 07:30N 59°40' E 023°42'612.7
2018-Jun-14 07:00N 59°41' E 023°54'612.5
2018-Jun-14 06:30N 59°43' E 024°06'612.6
2018-Jun-14 06:00N 59°45' E 024°18'611.9
2018-Jun-14 05:30N 59°46' E 024°29'612.5
2018-Jun-14 05:00N 59°42' E 024°39'612.3
2018-Jun-14 04:30N 59°37' E 024°47'2 3.9
2018-Jun-14 04:00N 59°36' E 024°49'0 0.1
2018-Jun-14 03:28N 59°36' E 024°48'0 0.0
2018-Jun-14 02:58N 59°36' E 024°48'0 0.0
2018-Jun-14 02:30N 59°36' E 024°48'0 0.0
2018-Jun-14 02:00N 59°36' E 024°48'0 0.0
2018-Jun-14 01:29N 59°36' E 024°48'0 0.0
2018-Jun-14 01:00N 59°36' E 024°48'0 0.0
2018-Jun-14 00:28N 59°36' E 024°48'0 0.0
2018-Jun-13 23:58N 59°36' E 024°48'0 0.0
2018-Jun-13 23:28N 59°36' E 024°48'0 0.0
2018-Jun-13 22:58N 59°36' E 024°48'0 0.0
2018-Jun-13 22:28N 59°36' E 024°48'0 0.0
2018-Jun-13 21:58N 59°36' E 024°48'0 0.0
2018-Jun-13 21:28N 59°36' E 024°49'0 0.0
2018-Jun-13 20:58N 59°36' E 024°49'0 0.0
2018-Jun-13 20:29N 59°36' E 024°49'0 0.0
2018-Jun-13 19:58N 59°36' E 024°49'0 0.0
2018-Jun-13 19:28N 59°36' E 024°49'0 0.0
2018-Jun-13 18:58N 59°36' E 024°49'0 0.0
2018-Jun-13 18:28N 59°36' E 024°49'0 0.0
2018-Jun-13 17:58N 59°36' E 024°49'0 0.0
2018-Jun-13 17:29N 59°36' E 024°48'0 0.0
2018-Jun-13 16:58N 59°36' E 024°48'0 0.0
2018-Jun-13 16:30N 59°36' E 024°48'0 0.0
2018-Jun-13 15:58N 59°36' E 024°49'0 0.1
2018-Jun-13 15:30N 59°35' E 024°49'1 3.0
2018-Jun-13 15:00N 59°37' E 024°48'3 5.9
2018-Jun-13 14:30N 59°40' E 024°49'510.5
2018-Jun-13 14:00N 59°45' E 024°53'612.3
2018-Jun-13 13:30N 59°49' E 025°01'711.6
2018-Jun-13 12:56N 59°52' E 025°13'512.4
2018-Jun-13 12:30N 59°53' E 025°23'612.3
2018-Jun-13 12:00N 59°54' E 025°36'612.5
2018-Jun-13 11:30N 59°55' E 025°48'612.5
2018-Jun-13 11:00N 59°57' E 025°60'812.3
2018-Jun-13 10:20N 59°59' E 026°16'412.5
2018-Jun-13 10:00N 60°00' E 026°24'612.4
2018-Jun-13 09:30N 60°01' E 026°36'612.8
2018-Jun-13 09:00N 60°00' E 026°49'612.4
2018-Jun-13 08:30N 59°59' E 027°01'611.9
2018-Jun-13 07:59N 60°02' E 027°12'713.3
2018-Jun-13 07:28N 60°06' E 027°24'612.1
2018-Jun-13 07:00N 60°08' E 027°33'612.0
2018-Jun-13 06:29N 60°12' E 027°44'612.1
2018-Jun-13 06:00N 60°11' E 027°56'612.6
2018-Jun-13 05:30N 60°09' E 028°08'612.0
2018-Jun-13 05:00N 60°07' E 028°19'612.0
2018-Jun-13 04:30N 60°09' E 028°31'612.3
2018-Jun-13 04:00N 60°10' E 028°43'5 9.7
2018-Jun-13 03:30N 60°15' E 028°48'5 9.2
2018-Jun-13 03:00N 60°19' E 028°44'0 0.3
2018-Jun-13 02:02N 60°19' E 028°44'0 0.0
2018-Jun-13 01:41N 60°19' E 028°44'0 0.0
2018-Jun-13 01:26N 60°19' E 028°44'0 0.0
2018-Jun-13 00:56N 60°19' E 028°44'0 0.0
2018-Jun-13 00:22N 60°19' E 028°44'0 0.0
2018-Jun-12 23:55N 60°19' E 028°44'0 0.0
2018-Jun-12 23:27N 60°19' E 028°44'0 0.0
2018-Jun-12 22:56N 60°19' E 028°44'0 0.0
2018-Jun-12 21:54N 60°19' E 028°44'0 0.0
2018-Jun-12 21:24N 60°19' E 028°44'0 0.0
2018-Jun-12 20:30N 60°19' E 028°44'0 0.0
2018-Jun-12 19:59N 60°19' E 028°44'0 0.0
2018-Jun-12 19:26N 60°19' E 028°44'0 0.0
2018-Jun-12 18:58N 60°19' E 028°44'0 0.0
2018-Jun-12 18:27N 60°19' E 028°44'0 0.0
2018-Jun-12 16:33N 60°19' E 028°44'0 0.0
2018-Jun-12 16:11N 60°19' E 028°44'0 0.0
2018-Jun-12 15:59N 60°19' E 028°44'0 0.0
2018-Jun-12 15:27N 60°19' E 028°44'0 0.0
2018-Jun-12 14:57N 60°19' E 028°44'0 0.0
2018-Jun-12 13:00N 60°19' E 028°44'0 0.0
2018-Jun-12 12:26N 60°19' E 028°44'0 0.0
2018-Jun-12 11:32N 60°19' E 028°44'0 0.0
2018-Jun-12 11:21N 60°19' E 028°44'0 0.0
2018-Jun-12 10:56N 60°19' E 028°44'0 0.0
2018-Jun-12 10:30N 60°19' E 028°44'0 0.0
2018-Jun-12 09:55N 60°19' E 028°44'0 0.0
2018-Jun-12 09:18N 60°19' E 028°44'0 0.0
2018-Jun-12 08:48N 60°19' E 028°44'0 0.0
2018-Jun-12 08:29N 60°19' E 028°44'0 0.0
2018-Jun-12 07:56N 60°19' E 028°44'0 0.0
2018-Jun-12 07:29N 60°19' E 028°44'0 0.0
2018-Jun-12 06:42N 60°19' E 028°44'0 0.0
2018-Jun-12 06:28N 60°19' E 028°44'0 0.0
2018-Jun-12 05:59N 60°19' E 028°44'0 0.0
2018-Jun-12 05:28N 60°19' E 028°44'0 0.0
2018-Jun-12 05:00N 60°19' E 028°44'0 0.0
2018-Jun-12 04:27N 60°19' E 028°44'0 0.0
2018-Jun-12 03:59N 60°19' E 028°44'0 0.0
2018-Jun-12 03:29N 60°19' E 028°44'0 0.0
2018-Jun-12 02:53N 60°19' E 028°44'0 0.0
2018-Jun-12 02:23N 60°19' E 028°44'0 0.0
2018-Jun-12 01:39N 60°19' E 028°44'0 0.0
2018-Jun-12 01:27N 60°19' E 028°44'0 0.0
2018-Jun-12 00:51N 60°19' E 028°44'0 0.0
2018-Jun-12 00:19N 60°19' E 028°44'0 0.0
2018-Jun-11 23:54N 60°19' E 028°44'0 0.1
2018-Jun-11 23:29N 60°19' E 028°44'1 2.1
2018-Jun-11 23:01N 60°18' E 028°44'4 7.6
2018-Jun-11 22:31N 60°15' E 028°48'712.2
2018-Jun-11 21:58N 60°09' E 028°41'613.3
2018-Jun-11 21:31N 60°04' E 028°35'510.1
2018-Jun-11 21:00N 60°00' E 028°28'0 0.3
2018-Jun-11 20:29N 60°00' E 028°28'0 0.0
2018-Jun-11 20:00N 60°00' E 028°28'0 0.0
2018-Jun-11 19:30N 60°00' E 028°28'0 0.0
2018-Jun-11 18:50N 60°00' E 028°28'0 0.0
2018-Jun-11 18:30N 60°00' E 028°28'0 0.0
2018-Jun-11 17:53N 60°00' E 028°28'0 0.0
2018-Jun-11 17:23N 60°00' E 028°28'0 0.0
2018-Jun-11 16:53N 60°00' E 028°28'0 0.0
2018-Jun-11 16:23N 60°00' E 028°28'0 0.1
2018-Jun-11 15:53N 60°00' E 028°28'0 0.0
2018-Jun-11 15:23N 60°00' E 028°28'0 0.0
2018-Jun-11 14:56N 60°00' E 028°28'0 0.1
2018-Jun-11 14:26N 60°00' E 028°28'0 0.1
2018-Jun-11 13:59N 60°00' E 028°28'0 0.6
2018-Jun-11 13:31N 60°01' E 028°28'2 4.5
2018-Jun-11 13:01N 60°03' E 028°26'5 9.1
2018-Jun-11 12:30N 60°06' E 028°19'612.0
2018-Jun-11 12:01N 60°08' E 028°08'612.4
2018-Jun-11 11:30N 60°10' E 027°56'611.5
2018-Jun-11 11:00N 60°10' E 027°44'612.6
2018-Jun-11 10:30N 60°07' E 027°33'612.3
2018-Jun-11 10:01N 60°04' E 027°23'712.5
2018-Jun-11 09:28N 60°00' E 027°12'611.7
2018-Jun-11 09:00N 59°58' E 027°02'612.4
2018-Jun-11 08:30N 59°59' E 026°50'612.1
2018-Jun-11 08:00N 59°59' E 026°38'612.5
2018-Jun-11 07:31N 59°57' E 026°26'612.2
2018-Jun-11 07:00N 59°56' E 026°14'612.4
2018-Jun-11 06:31N 59°54' E 026°02'612.4
2018-Jun-11 06:01N 59°52' E 025°50'612.5
2018-Jun-11 05:31N 59°51' E 025°38'612.7
2018-Jun-11 05:01N 59°50' E 025°26'612.6
2018-Jun-11 04:31N 59°48' E 025°13'612.5
2018-Jun-11 04:01N 59°47' E 025°01'612.6
2018-Jun-11 03:31N 59°46' E 024°49'612.8
2018-Jun-11 03:01N 59°45' E 024°37'612.7
2018-Jun-11 02:31N 59°43' E 024°24'612.8
2018-Jun-11 02:01N 59°41' E 024°12'612.7
2018-Jun-11 01:31N 59°39' E 024°00'612.5
2018-Jun-11 01:01N 59°37' E 023°49'612.5
2018-Jun-11 00:31N 59°35' E 023°37'612.8
2018-Jun-11 00:01N 59°33' E 023°25'612.6
2018-Jun-10 23:30N 59°31' E 023°13'612.5
2018-Jun-10 23:01N 59°29' E 023°01'612.6
2018-Jun-10 22:31N 59°27' E 022°50'612.6
2018-Jun-10 22:01N 59°25' E 022°38'612.6
2018-Jun-10 21:30N 59°21' E 022°28'612.6
2018-Jun-10 21:00N 59°17' E 022°18'612.6
2018-Jun-10 20:30N 59°14' E 022°08'612.7
2018-Jun-10 20:00N 59°10' E 021°59'612.6
2018-Jun-10 19:31N 59°06' E 021°49'612.4
2018-Jun-10 19:01N 59°01' E 021°41'612.2
2018-Jun-10 18:29N 58°56' E 021°33'612.2
2018-Jun-10 18:00N 58°52' E 021°26'612.4
2018-Jun-10 17:30N 58°47' E 021°19'612.5
2018-Jun-10 17:00N 58°42' E 021°12'612.4
2018-Jun-10 16:29N 58°37' E 021°04'612.3
2018-Jun-10 16:01N 58°32' E 020°57'612.3
2018-Jun-10 15:31N 58°27' E 020°50'612.7
2018-Jun-10 15:00N 58°22' E 020°43'  

Dump ship's entire track history